sensor_id;sensor_type;location;lat;lon;timestamp;P1;durP1;ratioP1;P2;durP2;ratioP2
45338;SDS011;31071;51.478;5.710;2023-11-18T00:09:22;55.53;;;25.98;;
45338;SDS011;31071;51.478;5.710;2023-11-18T00:15:20;55.90;;;27.50;;
45338;SDS011;31071;51.478;5.710;2023-11-18T00:18:38;53.22;;;26.27;;
45338;SDS011;31071;51.478;5.710;2023-11-18T00:25:10;57.83;;;28.73;;
45338;SDS011;31071;51.478;5.710;2023-11-18T00:27:39;58.15;;;28.48;;
45338;SDS011;31071;51.478;5.710;2023-11-18T00:30:05;64.93;;;29.15;;
45338;SDS011;31071;51.478;5.710;2023-11-18T00:32:36;58.60;;;27.70;;
45338;SDS011;31071;51.478;5.710;2023-11-18T00:35:02;57.22;;;27.90;;
45338;SDS011;31071;51.478;5.710;2023-11-18T00:37:30;55.70;;;27.80;;
45338;SDS011;31071;51.478;5.710;2023-11-18T00:39:57;59.38;;;25.92;;
45338;SDS011;31071;51.478;5.710;2023-11-18T00:42:22;55.63;;;28.27;;
45338;SDS011;31071;51.478;5.710;2023-11-18T00:44:48;54.08;;;27.35;;
45338;SDS011;31071;51.478;5.710;2023-11-18T00:47:14;67.13;;;28.98;;
45338;SDS011;31071;51.478;5.710;2023-11-18T00:49:40;56.85;;;28.02;;
45338;SDS011;31071;51.478;5.710;2023-11-18T00:52:05;58.30;;;28.00;;
45338;SDS011;31071;51.478;5.710;2023-11-18T00:54:31;61.92;;;28.73;;
45338;SDS011;31071;51.478;5.710;2023-11-18T00:56:58;62.05;;;27.85;;
45338;SDS011;31071;51.478;5.710;2023-11-18T00:59:32;61.40;;;29.50;;
45338;SDS011;31071;51.478;5.710;2023-11-18T01:01:58;64.85;;;29.55;;
45338;SDS011;31071;51.478;5.710;2023-11-18T01:04:24;61.67;;;28.67;;
45338;SDS011;31071;51.478;5.710;2023-11-18T01:06:50;62.30;;;28.98;;
45338;SDS011;31071;51.478;5.710;2023-11-18T01:09:16;58.03;;;27.38;;
45338;SDS011;31071;51.478;5.710;2023-11-18T01:11:42;54.60;;;26.35;;
45338;SDS011;31071;51.478;5.710;2023-11-18T01:14:09;60.65;;;28.13;;
45338;SDS011;31071;51.478;5.710;2023-11-18T01:16:36;55.08;;;26.13;;
45338;SDS011;31071;51.478;5.710;2023-11-18T01:19:02;51.95;;;26.02;;
45338;SDS011;31071;51.478;5.710;2023-11-18T01:21:28;54.10;;;26.88;;
45338;SDS011;31071;51.478;5.710;2023-11-18T01:23:54;50.17;;;26.05;;
45338;SDS011;31071;51.478;5.710;2023-11-18T01:26:20;51.22;;;24.38;;
45338;SDS011;31071;51.478;5.710;2023-11-18T01:28:46;57.38;;;27.70;;
45338;SDS011;31071;51.478;5.710;2023-11-18T01:31:12;55.30;;;26.17;;
45338;SDS011;31071;51.478;5.710;2023-11-18T01:33:39;52.55;;;26.85;;
45338;SDS011;31071;51.478;5.710;2023-11-18T01:36:07;51.45;;;25.75;;
45338;SDS011;31071;51.478;5.710;2023-11-18T01:38:34;56.45;;;27.08;;
45338;SDS011;31071;51.478;5.710;2023-11-18T01:41:02;50.42;;;26.48;;
45338;SDS011;31071;51.478;5.710;2023-11-18T01:43:30;54.97;;;26.02;;
45338;SDS011;31071;51.478;5.710;2023-11-18T01:45:57;57.50;;;27.70;;
45338;SDS011;31071;51.478;5.710;2023-11-18T01:48:26;64.85;;;28.20;;
45338;SDS011;31071;51.478;5.710;2023-11-18T01:50:54;49.03;;;25.90;;
45338;SDS011;31071;51.478;5.710;2023-11-18T01:53:24;56.50;;;27.17;;
45338;SDS011;31071;51.478;5.710;2023-11-18T01:55:52;54.10;;;27.30;;
45338;SDS011;31071;51.478;5.710;2023-11-18T01:58:17;52.00;;;27.98;;
45338;SDS011;31071;51.478;5.710;2023-11-18T02:00:45;55.90;;;28.88;;
45338;SDS011;31071;51.478;5.710;2023-11-18T02:03:13;55.58;;;28.52;;
45338;SDS011;31071;51.478;5.710;2023-11-18T02:05:38;59.85;;;27.95;;
45338;SDS011;31071;51.478;5.710;2023-11-18T02:08:04;58.17;;;29.10;;
45338;SDS011;31071;51.478;5.710;2023-11-18T02:10:34;54.50;;;27.20;;
45338;SDS011;31071;51.478;5.710;2023-11-18T02:13:19;61.55;;;28.30;;
45338;SDS011;31071;51.478;5.710;2023-11-18T02:15:56;56.30;;;28.85;;
45338;SDS011;31071;51.478;5.710;2023-11-18T02:18:31;66.22;;;30.17;;
45338;SDS011;31071;51.478;5.710;2023-11-18T02:20:57;60.70;;;29.13;;
45338;SDS011;31071;51.478;5.710;2023-11-18T02:23:25;56.42;;;27.85;;
45338;SDS011;31071;51.478;5.710;2023-11-18T02:25:54;62.83;;;28.83;;
45338;SDS011;31071;51.478;5.710;2023-11-18T02:28:24;62.42;;;31.30;;
45338;SDS011;31071;51.478;5.710;2023-11-18T02:30:50;64.07;;;29.77;;
45338;SDS011;31071;51.478;5.710;2023-11-18T02:33:36;68.55;;;31.02;;
45338;SDS011;31071;51.478;5.710;2023-11-18T02:36:13;68.18;;;31.17;;
45338;SDS011;31071;51.478;5.710;2023-11-18T02:38:51;64.88;;;30.77;;
45338;SDS011;31071;51.478;5.710;2023-11-18T02:41:20;67.45;;;31.27;;
45338;SDS011;31071;51.478;5.710;2023-11-18T02:43:47;66.05;;;31.67;;
45338;SDS011;31071;51.478;5.710;2023-11-18T02:46:14;72.65;;;32.03;;
45338;SDS011;31071;51.478;5.710;2023-11-18T02:48:41;60.17;;;31.75;;
45338;SDS011;31071;51.478;5.710;2023-11-18T02:51:08;72.40;;;32.45;;
45338;SDS011;31071;51.478;5.710;2023-11-18T02:53:37;64.75;;;31.92;;
45338;SDS011;31071;51.478;5.710;2023-11-18T02:56:03;68.32;;;31.42;;
45338;SDS011;31071;51.478;5.710;2023-11-18T02:58:29;64.15;;;31.23;;
45338;SDS011;31071;51.478;5.710;2023-11-18T03:00:55;67.22;;;31.95;;
45338;SDS011;31071;51.478;5.710;2023-11-18T03:03:25;65.25;;;32.33;;
45338;SDS011;31071;51.478;5.710;2023-11-18T03:05:52;64.43;;;31.42;;
45338;SDS011;31071;51.478;5.710;2023-11-18T03:08:18;65.82;;;31.35;;
45338;SDS011;31071;51.478;5.710;2023-11-18T03:10:44;64.25;;;29.95;;
45338;SDS011;31071;51.478;5.710;2023-11-18T03:13:12;58.72;;;30.27;;
45338;SDS011;31071;51.478;5.710;2023-11-18T03:15:38;64.15;;;31.75;;
45338;SDS011;31071;51.478;5.710;2023-11-18T03:18:04;58.15;;;29.90;;
45338;SDS011;31071;51.478;5.710;2023-11-18T03:20:30;56.45;;;28.48;;
45338;SDS011;31071;51.478;5.710;2023-11-18T03:22:59;60.67;;;30.63;;
45338;SDS011;31071;51.478;5.710;2023-11-18T03:25:27;64.57;;;30.20;;
45338;SDS011;31071;51.478;5.710;2023-11-18T03:27:53;54.38;;;28.65;;
45338;SDS011;31071;51.478;5.710;2023-11-18T03:30:19;57.17;;;28.77;;
45338;SDS011;31071;51.478;5.710;2023-11-18T03:32:46;58.45;;;28.27;;
45338;SDS011;31071;51.478;5.710;2023-11-18T03:35:15;55.70;;;28.58;;
45338;SDS011;31071;51.478;5.710;2023-11-18T03:37:41;56.47;;;29.13;;
45338;SDS011;31071;51.478;5.710;2023-11-18T03:40:07;52.90;;;27.27;;
45338;SDS011;31071;51.478;5.710;2023-11-18T03:42:43;55.85;;;28.67;;
45338;SDS011;31071;51.478;5.710;2023-11-18T03:45:12;52.22;;;27.23;;
45338;SDS011;31071;51.478;5.710;2023-11-18T03:47:42;52.40;;;27.55;;
45338;SDS011;31071;51.478;5.710;2023-11-18T03:50:08;51.88;;;27.17;;
45338;SDS011;31071;51.478;5.710;2023-11-18T03:52:35;50.40;;;28.55;;
45338;SDS011;31071;51.478;5.710;2023-11-18T03:55:07;50.17;;;27.92;;
45338;SDS011;31071;51.478;5.710;2023-11-18T03:57:33;53.13;;;28.02;;
45338;SDS011;31071;51.478;5.710;2023-11-18T03:59:59;48.38;;;26.77;;
45338;SDS011;31071;51.478;5.710;2023-11-18T04:02:25;54.60;;;28.60;;
45338;SDS011;31071;51.478;5.710;2023-11-18T04:04:51;48.83;;;27.85;;
45338;SDS011;31071;51.478;5.710;2023-11-18T04:07:17;54.17;;;27.83;;
45338;SDS011;31071;51.478;5.710;2023-11-18T04:09:43;48.42;;;28.25;;
45338;SDS011;31071;51.478;5.710;2023-11-18T04:12:10;56.90;;;27.20;;
45338;SDS011;31071;51.478;5.710;2023-11-18T04:14:36;52.25;;;27.35;;
45338;SDS011;31071;51.478;5.710;2023-11-18T04:17:02;51.33;;;28.27;;
45338;SDS011;31071;51.478;5.710;2023-11-18T04:19:28;52.45;;;26.75;;
45338;SDS011;31071;51.478;5.710;2023-11-18T04:21:54;51.17;;;27.30;;
45338;SDS011;31071;51.478;5.710;2023-11-18T04:24:20;55.70;;;27.73;;
45338;SDS011;31071;51.478;5.710;2023-11-18T04:26:45;61.38;;;29.83;;
45338;SDS011;31071;51.478;5.710;2023-11-18T04:29:13;55.53;;;29.08;;
45338;SDS011;31071;51.478;5.710;2023-11-18T04:31:38;57.80;;;29.75;;
45338;SDS011;31071;51.478;5.710;2023-11-18T04:34:04;56.75;;;29.02;;
45338;SDS011;31071;51.478;5.710;2023-11-18T04:36:30;56.88;;;29.52;;
45338;SDS011;31071;51.478;5.710;2023-11-18T04:38:56;51.97;;;30.50;;
45338;SDS011;31071;51.478;5.710;2023-11-18T04:41:23;55.08;;;30.10;;
45338;SDS011;31071;51.478;5.710;2023-11-18T04:43:49;56.67;;;30.67;;
45338;SDS011;31071;51.478;5.710;2023-11-18T04:46:15;57.47;;;30.45;;
45338;SDS011;31071;51.478;5.710;2023-11-18T04:48:41;58.08;;;31.13;;
45338;SDS011;31071;51.478;5.710;2023-11-18T04:51:07;54.40;;;29.42;;
45338;SDS011;31071;51.478;5.710;2023-11-18T04:53:33;52.15;;;29.40;;
45338;SDS011;31071;51.478;5.710;2023-11-18T04:55:59;53.50;;;28.33;;
45338;SDS011;31071;51.478;5.710;2023-11-18T04:58:25;51.83;;;30.58;;
45338;SDS011;31071;51.478;5.710;2023-11-18T05:00:51;56.35;;;30.33;;
45338;SDS011;31071;51.478;5.710;2023-11-18T05:03:16;56.55;;;30.80;;
45338;SDS011;31071;51.478;5.710;2023-11-18T05:05:42;54.83;;;29.52;;
45338;SDS011;31071;51.478;5.710;2023-11-18T05:08:17;53.38;;;29.15;;
45338;SDS011;31071;51.478;5.710;2023-11-18T05:10:47;48.35;;;30.15;;
45338;SDS011;31071;51.478;5.710;2023-11-18T05:13:16;52.65;;;28.95;;
45338;SDS011;31071;51.478;5.710;2023-11-18T05:15:45;48.58;;;28.83;;
45338;SDS011;31071;51.478;5.710;2023-11-18T05:18:15;51.15;;;29.13;;
45338;SDS011;31071;51.478;5.710;2023-11-18T05:21:20;56.33;;;30.83;;
45338;SDS011;31071;51.478;5.710;2023-11-18T05:23:46;52.45;;;28.63;;
45338;SDS011;31071;51.478;5.710;2023-11-18T05:26:13;54.45;;;28.52;;
45338;SDS011;31071;51.478;5.710;2023-11-18T05:28:39;55.58;;;28.33;;
45338;SDS011;31071;51.478;5.710;2023-11-18T05:31:05;49.72;;;29.10;;
45338;SDS011;31071;51.478;5.710;2023-11-18T05:33:31;53.10;;;29.30;;
45338;SDS011;31071;51.478;5.710;2023-11-18T05:35:59;48.63;;;28.15;;
45338;SDS011;31071;51.478;5.710;2023-11-18T05:38:25;47.97;;;28.70;;
45338;SDS011;31071;51.478;5.710;2023-11-18T05:40:53;50.38;;;27.10;;
45338;SDS011;31071;51.478;5.710;2023-11-18T05:43:24;48.95;;;27.70;;
45338;SDS011;31071;51.478;5.710;2023-11-18T05:45:54;46.50;;;27.23;;
45338;SDS011;31071;51.478;5.710;2023-11-18T05:48:41;47.92;;;27.10;;
45338;SDS011;31071;51.478;5.710;2023-11-18T05:51:10;46.03;;;26.27;;
45338;SDS011;31071;51.478;5.710;2023-11-18T05:53:55;46.35;;;26.23;;
45338;SDS011;31071;51.478;5.710;2023-11-18T05:56:43;44.95;;;25.85;;
45338;SDS011;31071;51.478;5.710;2023-11-18T05:59:09;42.28;;;25.17;;
45338;SDS011;31071;51.478;5.710;2023-11-18T06:01:44;43.40;;;26.10;;
45338;SDS011;31071;51.478;5.710;2023-11-18T06:04:11;46.47;;;25.83;;
45338;SDS011;31071;51.478;5.710;2023-11-18T06:06:37;38.75;;;23.83;;
45338;SDS011;31071;51.478;5.710;2023-11-18T06:09:08;41.20;;;24.73;;
45338;SDS011;31071;51.478;5.710;2023-11-18T06:11:44;39.42;;;24.05;;
45338;SDS011;31071;51.478;5.710;2023-11-18T06:14:10;39.85;;;24.42;;
45338;SDS011;31071;51.478;5.710;2023-11-18T06:16:37;39.30;;;22.77;;
45338;SDS011;31071;51.478;5.710;2023-11-18T06:19:06;43.97;;;23.67;;
45338;SDS011;31071;51.478;5.710;2023-11-18T06:21:32;39.80;;;21.98;;
45338;SDS011;31071;51.478;5.710;2023-11-18T06:23:58;39.28;;;22.83;;
45338;SDS011;31071;51.478;5.710;2023-11-18T06:26:25;39.70;;;22.10;;
45338;SDS011;31071;51.478;5.710;2023-11-18T06:28:53;38.00;;;21.85;;
45338;SDS011;31071;51.478;5.710;2023-11-18T06:31:19;36.00;;;21.58;;
45338;SDS011;31071;51.478;5.710;2023-11-18T06:33:46;39.08;;;21.10;;
45338;SDS011;31071;51.478;5.710;2023-11-18T06:38:47;38.75;;;20.88;;
45338;SDS011;31071;51.478;5.710;2023-11-18T06:41:15;36.28;;;19.60;;
45338;SDS011;31071;51.478;5.710;2023-11-18T06:43:43;32.58;;;18.83;;
45338;SDS011;31071;51.478;5.710;2023-11-18T06:46:28;38.67;;;19.08;;
45338;SDS011;31071;51.478;5.710;2023-11-18T06:48:59;28.98;;;18.33;;
45338;SDS011;31071;51.478;5.710;2023-11-18T06:51:31;33.15;;;17.95;;
45338;SDS011;31071;51.478;5.710;2023-11-18T06:54:00;30.63;;;17.30;;
45338;SDS011;31071;51.478;5.710;2023-11-18T06:56:29;34.72;;;17.30;;
45338;SDS011;31071;51.478;5.710;2023-11-18T06:58:55;28.25;;;17.30;;
45338;SDS011;31071;51.478;5.710;2023-11-18T07:01:23;26.08;;;16.58;;
45338;SDS011;31071;51.478;5.710;2023-11-18T07:03:49;32.20;;;16.35;;
45338;SDS011;31071;51.478;5.710;2023-11-18T07:06:18;30.17;;;16.50;;
45338;SDS011;31071;51.478;5.710;2023-11-18T07:08:49;28.83;;;16.00;;
45338;SDS011;31071;51.478;5.710;2023-11-18T07:11:16;30.80;;;16.10;;
45338;SDS011;31071;51.478;5.710;2023-11-18T07:13:46;29.92;;;16.55;;
45338;SDS011;31071;51.478;5.710;2023-11-18T07:16:16;32.15;;;16.83;;
45338;SDS011;31071;51.478;5.710;2023-11-18T07:18:43;27.52;;;16.13;;
45338;SDS011;31071;51.478;5.710;2023-11-18T07:21:09;27.25;;;15.25;;
45338;SDS011;31071;51.478;5.710;2023-11-18T07:23:35;25.67;;;15.52;;
45338;SDS011;31071;51.478;5.710;2023-11-18T07:26:01;27.73;;;15.02;;
45338;SDS011;31071;51.478;5.710;2023-11-18T07:28:30;26.02;;;15.27;;
45338;SDS011;31071;51.478;5.710;2023-11-18T07:30:56;26.45;;;15.25;;
45338;SDS011;31071;51.478;5.710;2023-11-18T07:33:23;26.15;;;15.10;;
45338;SDS011;31071;51.478;5.710;2023-11-18T07:35:49;38.55;;;20.10;;
45338;SDS011;31071;51.478;5.710;2023-11-18T07:38:15;27.35;;;15.88;;
45338;SDS011;31071;51.478;5.710;2023-11-18T07:40:41;26.77;;;15.02;;
45338;SDS011;31071;51.478;5.710;2023-11-18T07:43:13;28.35;;;15.13;;
45338;SDS011;31071;51.478;5.710;2023-11-18T07:45:42;25.15;;;14.60;;
45338;SDS011;31071;51.478;5.710;2023-11-18T07:48:09;24.08;;;14.63;;
45338;SDS011;31071;51.478;5.710;2023-11-18T07:50:38;30.40;;;15.75;;
45338;SDS011;31071;51.478;5.710;2023-11-18T07:53:09;26.63;;;14.75;;
45338;SDS011;31071;51.478;5.710;2023-11-18T07:55:36;28.08;;;14.77;;
45338;SDS011;31071;51.478;5.710;2023-11-18T07:58:18;24.45;;;13.80;;
45338;SDS011;31071;51.478;5.710;2023-11-18T08:00:48;26.52;;;15.35;;
45338;SDS011;31071;51.478;5.710;2023-11-18T08:03:15;26.67;;;14.80;;
45338;SDS011;31071;51.478;5.710;2023-11-18T08:05:41;27.27;;;14.07;;
45338;SDS011;31071;51.478;5.710;2023-11-18T08:08:11;24.10;;;13.45;;
45338;SDS011;31071;51.478;5.710;2023-11-18T08:10:38;24.65;;;13.73;;
45338;SDS011;31071;51.478;5.710;2023-11-18T08:13:15;25.50;;;13.32;;
45338;SDS011;31071;51.478;5.710;2023-11-18T08:15:47;29.67;;;13.40;;
45338;SDS011;31071;51.478;5.710;2023-11-18T08:18:13;23.95;;;13.18;;
45338;SDS011;31071;51.478;5.710;2023-11-18T08:20:39;27.27;;;13.25;;
45338;SDS011;31071;51.478;5.710;2023-11-18T08:23:06;25.45;;;12.95;;
45338;SDS011;31071;51.478;5.710;2023-11-18T08:26:01;23.93;;;13.30;;
45338;SDS011;31071;51.478;5.710;2023-11-18T08:28:32;22.48;;;12.60;;
45338;SDS011;31071;51.478;5.710;2023-11-18T08:30:58;28.25;;;12.88;;
45338;SDS011;31071;51.478;5.710;2023-11-18T08:33:25;28.02;;;13.15;;
45338;SDS011;31071;51.478;5.710;2023-11-18T08:35:53;22.38;;;12.40;;
45338;SDS011;31071;51.478;5.710;2023-11-18T08:38:19;30.15;;;12.02;;
45338;SDS011;31071;51.478;5.710;2023-11-18T08:40:45;20.15;;;11.45;;
45338;SDS011;31071;51.478;5.710;2023-11-18T08:43:13;20.13;;;10.98;;
45338;SDS011;31071;51.478;5.710;2023-11-18T08:45:41;22.02;;;10.90;;
45338;SDS011;31071;51.478;5.710;2023-11-18T08:48:07;18.27;;;10.93;;
45338;SDS011;31071;51.478;5.710;2023-11-18T08:50:34;22.70;;;11.27;;
45338;SDS011;31071;51.478;5.710;2023-11-18T08:53:01;20.48;;;10.23;;
45338;SDS011;31071;51.478;5.710;2023-11-18T08:55:29;18.05;;;9.52;;
45338;SDS011;31071;51.478;5.710;2023-11-18T08:58:09;25.33;;;9.55;;
45338;SDS011;31071;51.478;5.710;2023-11-18T09:00:47;17.40;;;10.15;;
45338;SDS011;31071;51.478;5.710;2023-11-18T09:03:14;16.33;;;9.13;;
45338;SDS011;31071;51.478;5.710;2023-11-18T09:05:50;19.55;;;9.73;;
45338;SDS011;31071;51.478;5.710;2023-11-18T09:11:31;21.08;;;8.80;;
45338;SDS011;31071;51.478;5.710;2023-11-18T09:13:58;14.80;;;8.73;;
45338;SDS011;31071;51.478;5.710;2023-11-18T09:16:25;15.02;;;7.88;;
45338;SDS011;31071;51.478;5.710;2023-11-18T09:18:54;14.77;;;8.02;;
45338;SDS011;31071;51.478;5.710;2023-11-18T09:21:23;19.58;;;9.13;;
45338;SDS011;31071;51.478;5.710;2023-11-18T09:23:54;15.05;;;8.68;;
45338;SDS011;31071;51.478;5.710;2023-11-18T09:26:21;22.00;;;8.82;;
45338;SDS011;31071;51.478;5.710;2023-11-18T09:28:59;18.35;;;8.15;;
45338;SDS011;31071;51.478;5.710;2023-11-18T09:31:26;21.13;;;7.97;;
45338;SDS011;31071;51.478;5.710;2023-11-18T09:33:55;17.95;;;8.02;;
45338;SDS011;31071;51.478;5.710;2023-11-18T09:36:22;10.60;;;6.70;;
45338;SDS011;31071;51.478;5.710;2023-11-18T09:38:48;17.27;;;7.07;;
45338;SDS011;31071;51.478;5.710;2023-11-18T09:41:18;15.90;;;7.20;;
45338;SDS011;31071;51.478;5.710;2023-11-18T09:43:49;13.52;;;7.85;;
45338;SDS011;31071;51.478;5.710;2023-11-18T09:46:23;21.33;;;7.78;;
45338;SDS011;31071;51.478;5.710;2023-11-18T09:49:37;13.82;;;7.18;;
45338;SDS011;31071;51.478;5.710;2023-11-18T09:51:50;17.00;;;7.50;;
45338;SDS011;31071;51.478;5.710;2023-11-18T09:57:52;15.07;;;7.00;;
45338;SDS011;31071;51.478;5.710;2023-11-18T10:00:25;19.00;;;7.97;;
45338;SDS011;31071;51.478;5.710;2023-11-18T10:02:54;17.02;;;7.63;;
45338;SDS011;31071;51.478;5.710;2023-11-18T10:05:25;16.42;;;7.40;;
45338;SDS011;31071;51.478;5.710;2023-11-18T10:07:53;19.85;;;8.45;;
45338;SDS011;31071;51.478;5.710;2023-11-18T10:10:27;16.17;;;8.15;;
45338;SDS011;31071;51.478;5.710;2023-11-18T10:13:01;18.52;;;7.68;;
45338;SDS011;31071;51.478;5.710;2023-11-18T10:15:33;14.75;;;7.75;;
45338;SDS011;31071;51.478;5.710;2023-11-18T10:18:03;19.27;;;8.07;;
45338;SDS011;31071;51.478;5.710;2023-11-18T10:26:34;15.70;;;7.20;;
45338;SDS011;31071;51.478;5.710;2023-11-18T10:29:03;17.45;;;7.72;;
45338;SDS011;31071;51.478;5.710;2023-11-18T10:31:32;15.43;;;7.03;;
45338;SDS011;31071;51.478;5.710;2023-11-18T10:34:00;19.58;;;7.78;;
45338;SDS011;31071;51.478;5.710;2023-11-18T10:36:26;22.63;;;8.45;;
45338;SDS011;31071;51.478;5.710;2023-11-18T10:38:52;19.20;;;7.55;;
45338;SDS011;31071;51.478;5.710;2023-11-18T10:41:21;19.10;;;6.95;;
45338;SDS011;31071;51.478;5.710;2023-11-18T10:43:48;14.40;;;6.90;;
45338;SDS011;31071;51.478;5.710;2023-11-18T10:46:16;19.42;;;7.63;;
45338;SDS011;31071;51.478;5.710;2023-11-18T10:48:43;16.48;;;7.15;;
45338;SDS011;31071;51.478;5.710;2023-11-18T10:51:21;16.98;;;7.55;;
45338;SDS011;31071;51.478;5.710;2023-11-18T10:54:01;18.30;;;7.28;;
45338;SDS011;31071;51.478;5.710;2023-11-18T10:56:29;15.35;;;7.45;;
45338;SDS011;31071;51.478;5.710;2023-11-18T10:58:55;15.10;;;7.25;;
45338;SDS011;31071;51.478;5.710;2023-11-18T11:01:30;15.23;;;7.50;;
45338;SDS011;31071;51.478;5.710;2023-11-18T11:03:59;17.27;;;7.82;;
45338;SDS011;31071;51.478;5.710;2023-11-18T11:06:32;18.50;;;7.65;;
45338;SDS011;31071;51.478;5.710;2023-11-18T11:09:06;15.35;;;7.57;;
45338;SDS011;31071;51.478;5.710;2023-11-18T11:12:10;17.10;;;7.57;;
45338;SDS011;31071;51.478;5.710;2023-11-18T11:17:48;15.45;;;6.70;;
45338;SDS011;31071;51.478;5.710;2023-11-18T11:20:27;15.10;;;6.97;;
45338;SDS011;31071;51.478;5.710;2023-11-18T11:26:02;21.05;;;7.47;;
45338;SDS011;31071;51.478;5.710;2023-11-18T11:28:39;17.55;;;6.68;;
45338;SDS011;31071;51.478;5.710;2023-11-18T11:31:14;20.83;;;6.32;;
45338;SDS011;31071;51.478;5.710;2023-11-18T11:36:59;15.93;;;6.55;;
45338;SDS011;31071;51.478;5.710;2023-11-18T11:39:26;13.98;;;6.68;;
45338;SDS011;31071;51.478;5.710;2023-11-18T11:41:55;18.67;;;6.90;;
45338;SDS011;31071;51.478;5.710;2023-11-18T11:44:30;17.05;;;6.65;;
45338;SDS011;31071;51.478;5.710;2023-11-18T11:46:57;19.70;;;7.20;;
45338;SDS011;31071;51.478;5.710;2023-11-18T11:49:39;12.85;;;6.15;;
45338;SDS011;31071;51.478;5.710;2023-11-18T11:52:19;12.23;;;5.93;;
45338;SDS011;31071;51.478;5.710;2023-11-18T11:55:00;13.38;;;6.03;;
45338;SDS011;31071;51.478;5.710;2023-11-18T11:57:40;17.73;;;6.35;;
45338;SDS011;31071;51.478;5.710;2023-11-18T12:00:27;17.13;;;7.35;;
45338;SDS011;31071;51.478;5.710;2023-11-18T12:03:08;12.20;;;5.97;;
45338;SDS011;31071;51.478;5.710;2023-11-18T12:05:45;19.75;;;6.35;;
45338;SDS011;31071;51.478;5.710;2023-11-18T12:08:17;20.58;;;6.63;;
45338;SDS011;31071;51.478;5.710;2023-11-18T12:11:02;17.27;;;6.00;;
45338;SDS011;31071;51.478;5.710;2023-11-18T12:13:35;21.23;;;7.57;;
45338;SDS011;31071;51.478;5.710;2023-11-18T12:16:05;17.25;;;7.18;;
45338;SDS011;31071;51.478;5.710;2023-11-18T12:18:35;17.88;;;6.70;;
45338;SDS011;31071;51.478;5.710;2023-11-18T12:21:10;17.88;;;6.72;;
45338;SDS011;31071;51.478;5.710;2023-11-18T12:33:01;15.55;;;6.30;;
45338;SDS011;31071;51.478;5.710;2023-11-18T12:44:15;11.15;;;4.85;;
45338;SDS011;31071;51.478;5.710;2023-11-18T12:46:47;15.27;;;5.03;;
45338;SDS011;31071;51.478;5.710;2023-11-18T12:49:23;10.18;;;4.90;;
45338;SDS011;31071;51.478;5.710;2023-11-18T12:51:54;9.32;;;4.68;;
45338;SDS011;31071;51.478;5.710;2023-11-18T12:54:24;13.82;;;4.63;;
45338;SDS011;31071;51.478;5.710;2023-11-18T12:59:21;9.55;;;4.20;;
45338;SDS011;31071;51.478;5.710;2023-11-18T13:01:48;12.43;;;4.72;;
45338;SDS011;31071;51.478;5.710;2023-11-18T13:04:27;8.25;;;3.95;;
45338;SDS011;31071;51.478;5.710;2023-11-18T13:06:53;7.15;;;3.97;;
45338;SDS011;31071;51.478;5.710;2023-11-18T13:09:26;9.55;;;4.40;;
45338;SDS011;31071;51.478;5.710;2023-11-18T13:11:58;11.65;;;4.00;;
45338;SDS011;31071;51.478;5.710;2023-11-18T13:14:25;12.02;;;4.25;;
45338;SDS011;31071;51.478;5.710;2023-11-18T13:17:01;8.77;;;3.88;;
45338;SDS011;31071;51.478;5.710;2023-11-18T13:19:33;5.70;;;3.58;;
45338;SDS011;31071;51.478;5.710;2023-11-18T13:22:00;8.20;;;3.63;;
45338;SDS011;31071;51.478;5.710;2023-11-18T13:24:29;9.30;;;3.75;;
45338;SDS011;31071;51.478;5.710;2023-11-18T13:26:56;6.30;;;4.28;;
45338;SDS011;31071;51.478;5.710;2023-11-18T13:29:26;7.88;;;3.55;;
45338;SDS011;31071;51.478;5.710;2023-11-18T13:31:51;7.15;;;3.58;;
45338;SDS011;31071;51.478;5.710;2023-11-18T13:34:18;13.68;;;3.80;;
45338;SDS011;31071;51.478;5.710;2023-11-18T13:36:45;13.23;;;3.80;;
45338;SDS011;31071;51.478;5.710;2023-11-18T13:39:20;11.45;;;3.58;;
45338;SDS011;31071;51.478;5.710;2023-11-18T13:41:49;8.27;;;3.97;;
45338;SDS011;31071;51.478;5.710;2023-11-18T13:44:31;6.47;;;3.50;;
45338;SDS011;31071;51.478;5.710;2023-11-18T13:47:07;7.70;;;3.63;;
45338;SDS011;31071;51.478;5.710;2023-11-18T13:49:37;8.50;;;3.75;;
45338;SDS011;31071;51.478;5.710;2023-11-18T13:52:06;7.13;;;3.80;;
45338;SDS011;31071;51.478;5.710;2023-11-18T13:54:40;8.27;;;3.72;;
45338;SDS011;31071;51.478;5.710;2023-11-18T13:57:13;8.75;;;3.70;;
45338;SDS011;31071;51.478;5.710;2023-11-18T13:59:42;6.70;;;4.05;;
45338;SDS011;31071;51.478;5.710;2023-11-18T14:02:09;6.68;;;4.05;;
45338;SDS011;31071;51.478;5.710;2023-11-18T14:04:35;8.45;;;4.35;;
45338;SDS011;31071;51.478;5.710;2023-11-18T14:07:02;8.10;;;3.55;;
45338;SDS011;31071;51.478;5.710;2023-11-18T14:09:31;10.10;;;3.92;;
45338;SDS011;31071;51.478;5.710;2023-11-18T14:12:07;8.82;;;4.10;;
45338;SDS011;31071;51.478;5.710;2023-11-18T14:14:34;7.93;;;4.35;;
45338;SDS011;31071;51.478;5.710;2023-11-18T14:17:00;7.63;;;4.07;;
45338;SDS011;31071;51.478;5.710;2023-11-18T14:19:26;7.18;;;4.28;;
45338;SDS011;31071;51.478;5.710;2023-11-18T14:21:55;5.82;;;4.03;;
45338;SDS011;31071;51.478;5.710;2023-11-18T14:24:21;5.20;;;4.20;;
45338;SDS011;31071;51.478;5.710;2023-11-18T14:26:56;6.53;;;4.28;;
45338;SDS011;31071;51.478;5.710;2023-11-18T14:29:41;7.88;;;4.53;;
45338;SDS011;31071;51.478;5.710;2023-11-18T14:32:24;7.57;;;3.92;;
45338;SDS011;31071;51.478;5.710;2023-11-18T14:35:14;7.15;;;3.80;;
45338;SDS011;31071;51.478;5.710;2023-11-18T14:37:52;6.85;;;4.00;;
45338;SDS011;31071;51.478;5.710;2023-11-18T14:40:23;4.13;;;3.60;;
45338;SDS011;31071;51.478;5.710;2023-11-18T14:42:49;7.47;;;4.35;;
45338;SDS011;31071;51.478;5.710;2023-11-18T14:45:16;7.22;;;3.85;;
45338;SDS011;31071;51.478;5.710;2023-11-18T14:47:48;5.40;;;4.03;;
45338;SDS011;31071;51.478;5.710;2023-11-18T14:50:14;4.65;;;4.05;;
45338;SDS011;31071;51.478;5.710;2023-11-18T14:52:44;6.57;;;4.45;;
45338;SDS011;31071;51.478;5.710;2023-11-18T14:55:10;7.55;;;4.00;;
45338;SDS011;31071;51.478;5.710;2023-11-18T14:57:40;6.53;;;4.20;;
45338;SDS011;31071;51.478;5.710;2023-11-18T15:00:07;5.45;;;4.35;;
45338;SDS011;31071;51.478;5.710;2023-11-18T15:02:33;6.03;;;4.45;;
45338;SDS011;31071;51.478;5.710;2023-11-18T15:05:06;6.60;;;4.82;;
45338;SDS011;31071;51.478;5.710;2023-11-18T15:07:34;7.75;;;4.57;;
45338;SDS011;31071;51.478;5.710;2023-11-18T15:10:00;12.23;;;3.80;;
45338;SDS011;31071;51.478;5.710;2023-11-18T15:12:28;5.70;;;4.70;;
45338;SDS011;31071;51.478;5.710;2023-11-18T15:14:55;4.10;;;3.70;;
45338;SDS011;31071;51.478;5.710;2023-11-18T15:17:24;7.90;;;4.50;;
45338;SDS011;31071;51.478;5.710;2023-11-18T15:19:56;5.60;;;4.28;;
45338;SDS011;31071;51.478;5.710;2023-11-18T15:22:24;5.38;;;4.20;;
45338;SDS011;31071;51.478;5.710;2023-11-18T15:24:52;6.55;;;4.68;;
45338;SDS011;31071;51.478;5.710;2023-11-18T15:27:17;9.65;;;5.15;;
45338;SDS011;31071;51.478;5.710;2023-11-18T15:29:44;5.10;;;4.53;;
45338;SDS011;31071;51.478;5.710;2023-11-18T15:32:15;4.97;;;4.47;;
45338;SDS011;31071;51.478;5.710;2023-11-18T15:34:42;5.85;;;4.55;;
45338;SDS011;31071;51.478;5.710;2023-11-18T15:37:08;8.00;;;4.95;;
45338;SDS011;31071;51.478;5.710;2023-11-18T15:39:34;6.95;;;5.10;;
45338;SDS011;31071;51.478;5.710;2023-11-18T15:42:00;4.88;;;4.25;;
45338;SDS011;31071;51.478;5.710;2023-11-18T15:44:27;4.85;;;4.40;;